Time;durP1;ratioP1;P1;durP2;ratioP2;P2;SDS_P1;SDS_P2;PMS_P1;PMS_P2;Temp;Humidity;BMP_temperature;BMP_pressure;BME280_temperature;BME280_humidity;BME280_pressure;Samples;Min_cycle;Max_cycle;Signal;HPM_P1;HPM_P2
2022/08/27 00:02:23;;;;;;;;;;;23.00;55.40;;;;;;5063517;28;19924;-86
2022/08/27 00:04:50;;;;;;;;;;;23.00;55.40;;;;;;5063538;28;19932;-80
2022/08/27 00:07:17;;;;;;;;;;;23.10;55.50;;;;;;5068770;28;20347;-81
2022/08/27 00:09:44;;;;;;;;;;;23.10;55.20;;;;;;5060677;28;19983;-87
2022/08/27 00:12:11;;;;;;;;;;;23.10;55.20;;;;;;5059852;28;19968;-87
2022/08/27 00:14:38;;;;;;;;;;;23.10;55.20;;;;;;5050278;28;19963;-79
2022/08/27 00:17:05;;;;;;;;;;;23.00;55.50;;;;;;5060029;28;19931;-86
2022/08/27 00:19:32;;;;;;;;;;;23.00;55.70;;;;;;5046288;28;20450;-81
2022/08/27 00:21:59;;;;;;;;;;;23.00;55.40;;;;;;5049436;28;19935;-78
2022/08/27 00:24:26;;;;;;;;;;;23.00;55.80;;;;;;5052719;28;19928;-79
2022/08/27 00:26:53;;;;;;;;;;;22.90;55.70;;;;;;5068852;28;20409;-79
2022/08/27 00:29:20;;;;;;;;;;;22.90;55.60;;;;;;5051712;28;19929;-82
2022/08/27 00:31:47;;;;;;;;;;;22.90;55.70;;;;;;5063392;28;19924;-79
2022/08/27 00:34:19;;;;;;;;;;;22.80;56.00;;;;;;5053602;28;19924;-83
2022/08/27 00:36:46;;;;;;;;;;;22.80;55.90;;;;;;5066069;28;19967;-83
2022/08/27 00:39:13;;;;;;;;;;;22.80;56.10;;;;;;5065996;28;19963;-85
2022/08/27 00:41:42;;;;;;;;;;;22.80;56.30;;;;;;5053572;28;19929;-82
2022/08/27 00:44:09;;;;;;;;;;;22.70;56.50;;;;;;5062288;28;20346;-79
2022/08/27 00:46:55;;;;;;;;;;;22.70;56.80;;;;;;5061943;28;19924;-85
2022/08/27 00:49:31;;;;;;;;;;;22.60;57.10;;;;;;5050920;28;19971;-85
2022/08/27 00:52:11;;;;;;;;;;;22.50;57.40;;;;;;5066141;28;20343;-83
2022/08/27 00:54:38;;;;;;;;;;;22.40;57.70;;;;;;5056636;28;20381;-86
2022/08/27 00:57:05;;;;;;;;;;;22.30;57.50;;;;;;5060235;28;19936;-84
2022/08/27 00:59:32;;;;;;;;;;;22.30;57.70;;;;;;5082580;28;19960;-87
2022/08/27 01:02:17;;;;;;;;;;;22.30;57.70;;;;;;5054878;28;19967;-85
2022/08/27 01:04:50;;;;;;;;;;;22.30;57.70;;;;;;5061026;28;19928;-85
2022/08/27 01:07:17;;;;;;;;;;;22.20;57.50;;;;;;5071736;28;19964;-81
2022/08/27 01:09:45;;;;;;;;;;;22.20;58.00;;;;;;5081055;28;19924;-81
2022/08/27 01:12:15;;;;;;;;;;;22.20;58.10;;;;;;5056463;28;19925;-81
2022/08/27 01:14:43;;;;;;;;;;;22.10;58.20;;;;;;5057402;28;20449;-85
2022/08/27 01:17:11;;;;;;;;;;;22.10;58.30;;;;;;5059093;28;19971;-83
2022/08/27 01:19:47;;;;;;;;;;;22.10;58.20;;;;;;5058232;28;19959;-80
2022/08/27 01:22:16;;;;;;;;;;;22.10;58.40;;;;;;5061910;28;20015;-79
2022/08/27 01:24:49;;;;;;;;;;;22.10;58.30;;;;;;5068257;28;19963;-86
2022/08/27 01:27:17;;;;;;;;;;;22.10;58.60;;;;;;5066393;28;20360;-80
2022/08/27 01:29:44;;;;;;;;;;;22.10;58.30;;;;;;5053922;28;20055;-84
2022/08/27 01:32:19;;;;;;;;;;;22.10;58.10;;;;;;5058146;28;20281;-79
2022/08/27 01:34:46;;;;;;;;;;;22.10;58.40;;;;;;5078928;28;19924;-85
2022/08/27 01:37:13;;;;;;;;;;;22.10;58.40;;;;;;5061764;28;19932;-79
2022/08/27 01:39:42;;;;;;;;;;;22.10;58.60;;;;;;5057521;28;19924;-80
2022/08/27 01:42:36;;;;;;;;;;;22.00;58.60;;;;;;5080464;28;19935;-82
2022/08/27 01:45:05;;;;;;;;;;;22.10;58.10;;;;;;5054228;28;19960;-79
2022/08/27 01:47:33;;;;;;;;;;;22.00;58.20;;;;;;5081301;28;19967;-85
2022/08/27 01:50:00;;;;;;;;;;;22.10;58.10;;;;;;5061826;28;19967;-86
2022/08/27 01:52:27;;;;;;;;;;;22.00;58.20;;;;;;5060031;28;19974;-86
2022/08/27 01:54:55;;;;;;;;;;;22.00;58.20;;;;;;5061901;28;19924;-84
2022/08/27 01:57:21;;;;;;;;;;;22.00;58.60;;;;;;5082597;28;20025;-80
2022/08/27 01:59:52;;;;;;;;;;;22.00;58.40;;;;;;5071892;28;20362;-81
2022/08/27 02:02:19;;;;;;;;;;;21.90;59.30;;;;;;5065551;28;19964;-79
2022/08/27 02:04:46;;;;;;;;;;;22.00;58.60;;;;;;5064287;28;20405;-81
2022/08/27 02:07:13;;;;;;;;;;;22.00;58.50;;;;;;5072288;28;19966;-78
2022/08/27 02:09:40;;;;;;;;;;;21.90;58.50;;;;;;5072480;28;19935;-85
2022/08/27 02:12:07;;;;;;;;;;;21.90;58.50;;;;;;5078706;28;20407;-84
2022/08/27 02:14:34;;;;;;;;;;;21.90;58.60;;;;;;5076489;28;19929;-88
2022/08/27 02:17:01;;;;;;;;;;;21.80;58.60;;;;;;5083651;28;19925;-80
2022/08/27 02:19:28;;;;;;;;;;;21.80;58.20;;;;;;5085492;28;19946;-81
2022/08/27 02:21:59;;;;;;;;;;;21.80;58.10;;;;;;5075054;28;19928;-80
2022/08/27 02:24:28;;;;;;;;;;;21.90;57.70;;;;;;5073828;28;20018;-85
2022/08/27 02:26:56;;;;;;;;;;;21.90;57.70;;;;;;5069943;28;19967;-81
2022/08/27 02:29:23;;;;;;;;;;;22.00;57.30;;;;;;5064985;28;20344;-85
2022/08/27 02:31:50;;;;;;;;;;;22.00;57.10;;;;;;5034945;28;20397;-84
2022/08/27 02:34:17;;;;;;;;;;;22.00;57.30;;;;;;5045219;28;19925;-79
2022/08/27 02:36:44;;;;;;;;;;;22.10;57.30;;;;;;5052134;28;19929;-80
2022/08/27 02:39:11;;;;;;;;;;;22.00;57.10;;;;;;5034493;28;20386;-79
2022/08/27 02:41:37;;;;;;;;;;;22.00;57.20;;;;;;5063882;28;19964;-83
2022/08/27 02:44:04;;;;;;;;;;;22.10;57.20;;;;;;5062363;28;20392;-80
2022/08/27 02:46:37;;;;;;;;;;;22.00;57.30;;;;;;5045753;28;19925;-87
2022/08/27 02:49:04;;;;;;;;;;;22.00;57.10;;;;;;5060584;28;19936;-84
2022/08/27 02:51:31;;;;;;;;;;;21.90;56.80;;;;;;5049608;28;20393;-79
2022/08/27 02:53:59;;;;;;;;;;;22.00;56.90;;;;;;5062487;28;19972;-79
2022/08/27 02:56:27;;;;;;;;;;;22.00;57.00;;;;;;5053843;28;19980;-84
2022/08/27 02:58:54;;;;;;;;;;;22.00;57.00;;;;;;5067383;28;19986;-82
2022/08/27 03:01:21;;;;;;;;;;;22.00;56.90;;;;;;5065056;28;20381;-81
2022/08/27 03:03:48;;;;;;;;;;;22.00;56.90;;;;;;5062643;28;20439;-81
2022/08/27 03:06:15;;;;;;;;;;;21.90;57.10;;;;;;5043133;28;20055;-81
2022/08/27 03:08:41;;;;;;;;;;;21.90;56.90;;;;;;5056625;28;19964;-85
2022/08/27 03:11:20;;;;;;;;;;;21.90;56.80;;;;;;5049096;28;19924;-82
2022/08/27 03:13:47;;;;;;;;;;;21.90;57.00;;;;;;5050199;28;19929;-82
2022/08/27 03:16:14;;;;;;;;;;;21.90;57.00;;;;;;5047168;28;19936;-81
2022/08/27 03:18:40;;;;;;;;;;;21.90;56.90;;;;;;5054921;28;19925;-81
2022/08/27 03:21:07;;;;;;;;;;;21.80;57.10;;;;;;5040662;28;19941;-82
2022/08/27 03:23:34;;;;;;;;;;;21.90;57.20;;;;;;5049992;28;19929;-81
2022/08/27 03:26:03;;;;;;;;;;;21.80;57.30;;;;;;5042600;28;19975;-87
2022/08/27 03:28:32;;;;;;;;;;;21.70;57.30;;;;;;5037227;28;19953;-87
2022/08/27 03:31:00;;;;;;;;;;;21.80;57.20;;;;;;5043913;28;19975;-81
2022/08/27 03:33:27;;;;;;;;;;;21.70;57.10;;;;;;5059416;28;19925;-81
2022/08/27 03:35:54;;;;;;;;;;;21.70;56.80;;;;;;5057446;28;20364;-84
2022/08/27 03:38:21;;;;;;;;;;;21.70;56.50;;;;;;5064462;28;20281;-81
2022/08/27 03:40:49;;;;;;;;;;;21.70;56.80;;;;;;5066170;28;19924;-86
2022/08/27 03:43:16;;;;;;;;;;;21.70;57.10;;;;;;5066453;28;20387;-84
2022/08/27 03:45:44;;;;;;;;;;;21.70;57.30;;;;;;5044201;28;19965;-80
2022/08/27 03:48:27;;;;;;;;;;;21.70;57.20;;;;;;5065477;28;20063;-79
2022/08/27 03:50:53;;;;;;;;;;;21.70;57.30;;;;;;5069659;28;19963;-79
2022/08/27 03:53:20;;;;;;;;;;;21.60;57.30;;;;;;5062434;28;19929;-82
2022/08/27 03:55:47;;;;;;;;;;;21.60;57.70;;;;;;5053725;28;19964;-79
2022/08/27 03:58:14;;;;;;;;;;;21.50;57.70;;;;;;5060476;28;19963;-79
2022/08/27 04:00:41;;;;;;;;;;;21.50;57.80;;;;;;5057622;28;19964;-83
2022/08/27 04:03:10;;;;;;;;;;;21.40;58.10;;;;;;5051717;28;19968;-79
2022/08/27 04:05:37;;;;;;;;;;;21.40;58.60;;;;;;5055333;28;19976;-82
2022/08/27 04:08:05;;;;;;;;;;;21.30;58.50;;;;;;5062494;28;19961;-86
2022/08/27 04:10:32;;;;;;;;;;;21.30;58.60;;;;;;5054345;28;19925;-85
2022/08/27 04:13:00;;;;;;;;;;;21.30;58.70;;;;;;5045389;28;19925;-80
2022/08/27 04:15:27;;;;;;;;;;;21.30;58.50;;;;;;5054963;28;20451;-86
2022/08/27 04:17:54;;;;;;;;;;;21.30;58.30;;;;;;5055425;28;19925;-81
2022/08/27 04:20:20;;;;;;;;;;;21.30;58.30;;;;;;5061123;28;20351;-81
2022/08/27 04:23:01;;;;;;;;;;;21.30;58.20;;;;;;5045491;28;19925;-79
2022/08/27 04:25:28;;;;;;;;;;;21.30;58.00;;;;;;5067456;28;19974;-80
2022/08/27 04:27:55;;;;;;;;;;;21.30;58.10;;;;;;5061548;28;19975;-79
2022/08/27 04:30:21;;;;;;;;;;;21.30;58.20;;;;;;5062292;28;19928;-88
2022/08/27 04:32:49;;;;;;;;;;;21.30;58.20;;;;;;5075825;28;19924;-80
2022/08/27 04:35:16;;;;;;;;;;;21.30;58.40;;;;;;5058813;28;19924;-87
2022/08/27 04:37:43;;;;;;;;;;;21.30;58.50;;;;;;5055486;28;19932;-80
2022/08/27 04:40:11;;;;;;;;;;;21.30;58.60;;;;;;5061993;28;20388;-86
2022/08/27 04:42:38;;;;;;;;;;;21.20;58.50;;;;;;5065639;28;19978;-80
2022/08/27 04:45:05;;;;;;;;;;;21.20;58.30;;;;;;5058651;28;19925;-84
2022/08/27 04:47:32;;;;;;;;;;;21.20;58.50;;;;;;5063903;28;19989;-78
2022/08/27 04:49:58;;;;;;;;;;;21.20;58.60;;;;;;5056757;28;19924;-80
2022/08/27 04:52:25;;;;;;;;;;;21.20;58.60;;;;;;5068375;28;19924;-79
2022/08/27 04:54:52;;;;;;;;;;;21.30;58.70;;;;;;5072216;28;20390;-80
2022/08/27 04:57:19;;;;;;;;;;;21.20;59.60;;;;;;5057197;28;19964;-84
2022/08/27 04:59:46;;;;;;;;;;;21.20;58.70;;;;;;5064516;28;19928;-79
2022/08/27 05:02:13;;;;;;;;;;;21.20;58.70;;;;;;5062865;28;19963;-81
2022/08/27 05:04:40;;;;;;;;;;;21.10;58.80;;;;;;5075085;28;19971;-86
2022/08/27 05:07:08;;;;;;;;;;;21.20;58.60;;;;;;5059490;28;19947;-81
2022/08/27 05:09:35;;;;;;;;;;;21.20;58.60;;;;;;5053342;28;19978;-84
2022/08/27 05:12:02;;;;;;;;;;;21.20;58.50;;;;;;5079382;28;19980;-82
2022/08/27 05:14:29;;;;;;;;;;;21.20;58.30;;;;;;5057836;28;19924;-80
2022/08/27 05:16:56;;;;;;;;;;;21.20;58.10;;;;;;5059778;28;20376;-83
2022/08/27 05:19:23;;;;;;;;;;;21.20;58.40;;;;;;5063157;28;19929;-82
2022/08/27 05:21:51;;;;;;;;;;;21.20;58.00;;;;;;5049896;28;19960;-83
2022/08/27 05:24:18;;;;;;;;;;;21.20;58.20;;;;;;5058274;28;19968;-83
2022/08/27 05:26:45;;;;;;;;;;;21.20;58.20;;;;;;5060361;28;20011;-81
2022/08/27 05:29:12;;;;;;;;;;;21.20;58.20;;;;;;5065033;28;20385;-84
2022/08/27 05:31:40;;;;;;;;;;;21.20;58.30;;;;;;5059309;28;19925;-79
2022/08/27 05:34:08;;;;;;;;;;;21.20;58.50;;;;;;5044286;28;19932;-86
2022/08/27 05:36:36;;;;;;;;;;;21.20;58.50;;;;;;5058637;28;19925;-86
2022/08/27 05:39:04;;;;;;;;;;;21.20;58.50;;;;;;5059513;28;19975;-82
2022/08/27 05:41:32;;;;;;;;;;;21.20;58.20;;;;;;5065060;28;19931;-83
2022/08/27 05:44:02;;;;;;;;;;;21.20;58.30;;;;;;5062158;28;19928;-81
2022/08/27 05:46:49;;;;;;;;;;;21.20;58.70;;;;;;5066346;28;19935;-82
2022/08/27 05:49:17;;;;;;;;;;;21.20;58.30;;;;;;5060022;28;19924;-84
2022/08/27 05:51:44;;;;;;;;;;;21.20;58.20;;;;;;5054539;28;19930;-81
2022/08/27 05:54:15;;;;;;;;;;;21.20;57.90;;;;;;5060650;28;20343;-81
2022/08/27 05:56:42;;;;;;;;;;;21.30;58.10;;;;;;5066756;28;19964;-85
2022/08/27 06:01:55;;;;;;;;;;;21.30;57.80;;;;;;5078837;28;20346;-82
2022/08/27 06:04:23;;;;;;;;;;;21.30;57.80;;;;;;5059667;28;19936;-79
2022/08/27 06:06:50;;;;;;;;;;;21.30;57.70;;;;;;5082875;28;20015;-84
2022/08/27 06:09:22;;;;;;;;;;;21.40;57.70;;;;;;5065100;28;19975;-80
2022/08/27 06:11:49;;;;;;;;;;;21.40;58.00;;;;;;5063028;28;19977;-85
2022/08/27 06:14:16;;;;;;;;;;;21.40;58.20;;;;;;5075411;28;19924;-79
2022/08/27 06:16:43;;;;;;;;;;;21.50;57.90;;;;;;5068370;28;19924;-79
2022/08/27 06:19:11;;;;;;;;;;;21.50;57.80;;;;;;5077437;28;19955;-85
2022/08/27 06:21:38;;;;;;;;;;;21.50;57.70;;;;;;5090168;28;19925;-80
2022/08/27 06:24:06;;;;;;;;;;;21.50;57.30;;;;;;5060944;28;19932;-84
2022/08/27 06:26:33;;;;;;;;;;;21.50;57.50;;;;;;5065170;28;19960;-79
2022/08/27 06:29:04;;;;;;;;;;;21.60;57.40;;;;;;5055494;28;19998;-79
2022/08/27 06:31:34;;;;;;;;;;;21.60;57.40;;;;;;5067401;28;19925;-83
2022/08/27 06:34:01;;;;;;;;;;;21.60;57.20;;;;;;5053758;28;20419;-86
2022/08/27 06:36:37;;;;;;;;;;;21.70;56.90;;;;;;5067027;28;20015;-86
2022/08/27 06:39:04;;;;;;;;;;;21.70;57.20;;;;;;5076135;28;19956;-84
2022/08/27 06:41:32;;;;;;;;;;;21.70;56.90;;;;;;5073251;28;19963;-81
2022/08/27 06:43:58;;;;;;;;;;;21.70;57.20;;;;;;5052264;28;19994;-81
2022/08/27 06:46:26;;;;;;;;;;;21.80;57.00;;;;;;5083061;28;20338;-79
2022/08/27 06:48:54;;;;;;;;;;;21.80;56.80;;;;;;5086946;28;19992;-86
2022/08/27 06:51:24;;;;;;;;;;;21.80;56.60;;;;;;5066430;28;19981;-83
2022/08/27 06:53:52;;;;;;;;;;;21.90;55.90;;;;;;5063075;28;19928;-79
2022/08/27 06:56:19;;;;;;;;;;;21.90;56.40;;;;;;5056038;28;19972;-78
2022/08/27 06:58:47;;;;;;;;;;;22.00;56.10;;;;;;5077425;28;19967;-86
2022/08/27 07:01:19;;;;;;;;;;;22.00;56.10;;;;;;5073445;28;20387;-84
2022/08/27 07:03:47;;;;;;;;;;;22.10;56.00;;;;;;5067393;28;20451;-81
2022/08/27 07:06:15;;;;;;;;;;;22.20;55.70;;;;;;5083649;28;20027;-81
2022/08/27 07:08:42;;;;;;;;;;;22.20;55.70;;;;;;5069626;28;19925;-81
2022/08/27 07:11:19;;;;;;;;;;;22.30;55.30;;;;;;5071332;28;19932;-83
2022/08/27 07:13:46;;;;;;;;;;;22.40;55.30;;;;;;5056703;28;19970;-79
2022/08/27 07:16:14;;;;;;;;;;;22.40;55.30;;;;;;5066605;28;19927;-80
2022/08/27 07:18:41;;;;;;;;;;;22.50;55.00;;;;;;5066976;28;19971;-85
2022/08/27 07:21:08;;;;;;;;;;;22.60;55.50;;;;;;5081247;28;20643;-81
2022/08/27 07:23:35;;;;;;;;;;;22.70;55.30;;;;;;5062435;28;19932;-80
2022/08/27 07:26:07;;;;;;;;;;;22.90;55.30;;;;;;5055363;28;20281;-78
2022/08/27 07:28:33;;;;;;;;;;;23.00;54.80;;;;;;5064912;28;19981;-81
2022/08/27 07:31:00;;;;;;;;;;;23.20;53.80;;;;;;5068254;28;20475;-78
2022/08/27 07:33:27;;;;;;;;;;;23.30;53.80;;;;;;5061297;28;20478;-83
2022/08/27 07:35:54;;;;;;;;;;;23.30;53.40;;;;;;5071046;28;19959;-85
2022/08/27 07:38:20;;;;;;;;;;;23.30;53.60;;;;;;5070558;28;19940;-79
2022/08/27 07:40:48;;;;;;;;;;;23.40;52.70;;;;;;5054277;28;20028;-84
2022/08/27 07:46:00;;;;;;;;;;;23.40;53.20;;;;;;5078889;28;20396;-79
2022/08/27 07:48:28;;;;;;;;;;;23.60;52.70;;;;;;5075311;28;19925;-79
2022/08/27 07:50:54;;;;;;;;;;;23.70;52.90;;;;;;5059846;28;19932;-83
2022/08/27 07:53:21;;;;;;;;;;;23.90;52.60;;;;;;5049148;28;20339;-85
2022/08/27 07:55:48;;;;;;;;;;;24.10;52.10;;;;;;5041891;28;19968;-80
2022/08/27 07:58:15;;;;;;;;;;;24.30;50.70;;;;;;5041708;28;19977;-80
2022/08/27 08:00:44;;;;;;;;;;;24.50;51.00;;;;;;5045193;28;19935;-85
2022/08/27 08:03:11;;;;;;;;;;;24.70;49.80;;;;;;5047565;28;19990;-80
2022/08/27 08:05:41;;;;;;;;;;;24.90;49.90;;;;;;5064169;28;19971;-84
2022/08/27 08:08:09;;;;;;;;;;;25.10;49.30;;;;;;5058221;28;20380;-84
2022/08/27 08:10:36;;;;;;;;;;;25.30;48.90;;;;;;5058693;28;19983;-83
2022/08/27 08:13:04;;;;;;;;;;;25.50;47.90;;;;;;5075105;28;19924;-83
2022/08/27 08:15:31;;;;;;;;;;;25.60;47.50;;;;;;5074492;28;19924;-80
2022/08/27 08:17:57;;;;;;;;;;;25.80;46.50;;;;;;5063715;28;20385;-84
2022/08/27 08:20:24;;;;;;;;;;;26.00;46.20;;;;;;5062604;28;19979;-79
2022/08/27 08:23:11;;;;;;;;;;;26.10;45.60;;;;;;5075888;28;20020;-80
2022/08/27 08:25:38;;;;;;;;;;;26.30;45.30;;;;;;5086788;28;20385;-80
2022/08/27 08:28:05;;;;;;;;;;;26.40;44.70;;;;;;5065356;28;20339;-83
2022/08/27 08:30:32;;;;;;;;;;;26.50;45.00;;;;;;5059457;28;19924;-80
2022/08/27 08:33:01;;;;;;;;;;;26.60;45.00;;;;;;5066395;28;19996;-82
2022/08/27 08:35:28;;;;;;;;;;;26.80;45.90;;;;;;5069701;28;19924;-78
2022/08/27 08:38:06;;;;;;;;;;;27.00;45.50;;;;;;5076520;28;19924;-82
2022/08/27 08:40:35;;;;;;;;;;;27.20;44.80;;;;;;5061485;28;19924;-84
2022/08/27 08:43:02;;;;;;;;;;;27.40;44.60;;;;;;5064217;28;19932;-78
2022/08/27 08:45:31;;;;;;;;;;;27.50;43.10;;;;;;5064059;28;19945;-82
2022/08/27 08:48:03;;;;;;;;;;;27.70;42.80;;;;;;5083791;28;19916;-81
2022/08/27 08:50:38;;;;;;;;;;;27.80;42.80;;;;;;5070243;28;19929;-85
2022/08/27 08:53:09;;;;;;;;;;;28.00;42.00;;;;;;5053705;28;19932;-80
2022/08/27 08:55:57;;;;;;;;;;;28.00;42.00;;;;;;5054861;28;19989;-80
2022/08/27 08:58:26;;;;;;;;;;;28.10;41.80;;;;;;5082457;28;19956;-83
2022/08/27 09:01:00;;;;;;;;;;;28.10;41.50;;;;;;5085057;28;19925;-80
2022/08/27 09:03:27;;;;;;;;;;;28.20;41.60;;;;;;5057386;28;20374;-83
2022/08/27 09:05:56;;;;;;;;;;;28.30;42.70;;;;;;5061608;28;20012;-85
2022/08/27 09:08:28;;;;;;;;;;;28.40;42.70;;;;;;5060229;28;19984;-85
2022/08/27 09:11:11;;;;;;;;;;;28.50;42.30;;;;;;5066755;28;19924;-85
2022/08/27 09:13:58;;;;;;;;;;;28.50;41.70;;;;;;5079927;28;19931;-83
2022/08/27 09:16:26;;;;;;;;;;;28.60;42.40;;;;;;5072025;28;19990;-80
2022/08/27 09:18:52;;;;;;;;;;;28.80;41.90;;;;;;5072498;28;19973;-85
2022/08/27 09:21:22;;;;;;;;;;;28.80;41.80;;;;;;5059431;28;19916;-85
2022/08/27 09:24:03;;;;;;;;;;;28.90;41.40;;;;;;5068239;28;20016;-83
2022/08/27 09:26:31;;;;;;;;;;;29.00;42.00;;;;;;5068305;28;19924;-82
2022/08/27 09:29:14;;;;;;;;;;;29.10;42.00;;;;;;5069798;28;19936;-83
2022/08/27 09:31:52;;;;;;;;;;;29.30;42.40;;;;;;5080514;28;19925;-84
2022/08/27 09:34:19;;;;;;;;;;;29.40;41.40;;;;;;5079288;28;19946;-85
2022/08/27 09:36:52;;;;;;;;;;;29.50;41.80;;;;;;5076879;28;19974;-84
2022/08/27 09:39:19;;;;;;;;;;;29.60;41.90;;;;;;5059158;28;19924;-85
2022/08/27 09:41:47;;;;;;;;;;;29.80;41.30;;;;;;5068752;28;19928;-78
2022/08/27 09:44:16;;;;;;;;;;;29.80;42.10;;;;;;5064975;28;19971;-84
2022/08/27 09:46:52;;;;;;;;;;;29.90;42.80;;;;;;5077373;28;20349;-86
2022/08/27 09:49:19;;;;;;;;;;;30.00;42.50;;;;;;5056101;28;19924;-81
2022/08/27 09:51:46;;;;;;;;;;;30.10;43.50;;;;;;5074290;28;19925;-85
2022/08/27 09:54:31;;;;;;;;;;;30.20;43.10;;;;;;5056339;28;19975;-85
2022/08/27 09:56:58;;;;;;;;;;;30.20;42.60;;;;;;5063017;28;19925;-86
2022/08/27 09:59:27;;;;;;;;;;;30.30;43.80;;;;;;5055258;28;19970;-85
2022/08/27 10:01:59;;;;;;;;;;;30.30;42.40;;;;;;5060630;28;19968;-78
2022/08/27 10:04:41;;;;;;;;;;;30.30;43.20;;;;;;5061803;28;20011;-86
2022/08/27 10:07:24;;;;;;;;;;;30.30;43.00;;;;;;5085471;28;20341;-78
2022/08/27 10:09:56;;;;;;;;;;;30.40;43.40;;;;;;5074561;28;19924;-79
2022/08/27 10:12:27;;;;;;;;;;;30.50;43.00;;;;;;5074246;28;19963;-79
2022/08/27 10:14:57;;;;;;;;;;;30.50;43.30;;;;;;5060500;28;19968;-78
2022/08/27 10:17:48;;;;;;;;;;;30.70;43.40;;;;;;5073823;28;19956;-81
2022/08/27 10:20:17;;;;;;;;;;;30.90;43.50;;;;;;5062545;28;19978;-82
2022/08/27 10:23:15;;;;;;;;;;;31.20;42.90;;;;;;5069808;28;19931;-80
2022/08/27 10:25:50;;;;;;;;;;;31.40;42.40;;;;;;5057818;28;19928;-81
2022/08/27 10:28:16;;;;;;;;;;;31.40;40.50;;;;;;5068740;28;20338;-81
2022/08/27 10:31:02;;;;;;;;;;;31.40;40.70;;;;;;5068644;28;19924;-81
2022/08/27 10:33:31;;;;;;;;;;;31.40;40.80;;;;;;5054463;28;19928;-81
2022/08/27 10:36:08;;;;;;;;;;;31.10;40.10;;;;;;5053511;28;19951;-79
2022/08/27 10:38:43;;;;;;;;;;;30.90;41.40;;;;;;5053937;28;20023;-80
2022/08/27 10:41:15;;;;;;;;;;;30.90;42.40;;;;;;5060107;28;20011;-81
2022/08/27 10:43:42;;;;;;;;;;;31.00;42.40;;;;;;5082308;28;19979;-82
2022/08/27 10:46:30;;;;;;;;;;;31.10;42.40;;;;;;5057119;28;20426;-82
2022/08/27 10:49:05;;;;;;;;;;;31.40;41.20;;;;;;5059224;28;19967;-82
2022/08/27 10:51:47;;;;;;;;;;;31.50;40.30;;;;;;5060958;28;19979;-81
2022/08/27 10:54:26;;;;;;;;;;;31.60;40.80;;;;;;5086466;28;20335;-81
2022/08/27 10:57:02;;;;;;;;;;;31.70;40.20;;;;;;5084961;28;19925;-81
2022/08/27 10:59:49;;;;;;;;;;;31.60;40.40;;;;;;5074737;28;20266;-82
2022/08/27 11:02:28;;;;;;;;;;;31.50;40.60;;;;;;5078322;28;19924;-79
2022/08/27 11:05:17;;;;;;;;;;;31.50;41.10;;;;;;5064567;28;20385;-83
2022/08/27 11:07:49;;;;;;;;;;;31.60;42.20;;;;;;5034917;28;20394;-82
2022/08/27 11:10:20;;;;;;;;;;;31.70;41.30;;;;;;5060736;28;20364;-81
2022/08/27 11:12:50;;;;;;;;;;;31.90;41.70;;;;;;5058267;28;20027;-83
2022/08/27 11:15:24;;;;;;;;;;;32.10;41.80;;;;;;5055218;28;19932;-83
2022/08/27 11:18:04;;;;;;;;;;;32.40;41.40;;;;;;5049578;28;19924;-83
2022/08/27 11:20:34;;;;;;;;;;;32.60;40.60;;;;;;5068512;28;19924;-83
2022/08/27 11:23:17;;;;;;;;;;;32.80;39.70;;;;;;5069819;28;19924;-81
2022/08/27 11:25:49;;;;;;;;;;;33.00;40.30;;;;;;5075922;28;19925;-83
2022/08/27 11:28:21;;;;;;;;;;;33.10;39.30;;;;;;5080545;28;19994;-81
2022/08/27 11:31:20;;;;;;;;;;;33.10;37.70;;;;;;5076060;28;19948;-80
2022/08/27 11:33:47;;;;;;;;;;;33.20;37.60;;;;;;5074841;28;19973;-81
2022/08/27 11:36:21;;;;;;;;;;;33.10;39.60;;;;;;5062253;28;19924;-80
2022/08/27 11:38:54;;;;;;;;;;;33.00;38.30;;;;;;5053079;28;19933;-81
2022/08/27 11:41:22;;;;;;;;;;;32.70;38.00;;;;;;5053109;28;19978;-82
2022/08/27 11:43:49;;;;;;;;;;;32.40;38.60;;;;;;5065475;28;19929;-82
2022/08/27 11:46:25;;;;;;;;;;;32.00;39.10;;;;;;5058416;28;19974;-81
2022/08/27 11:48:59;;;;;;;;;;;32.00;40.50;;;;;;5059888;28;19932;-81
2022/08/27 11:51:27;;;;;;;;;;;32.10;40.00;;;;;;5067012;28;19928;-83
2022/08/27 11:53:56;;;;;;;;;;;32.20;40.10;;;;;;5054433;28;19964;-82
2022/08/27 11:56:28;;;;;;;;;;;32.40;39.60;;;;;;5065008;28;19925;-82
2022/08/27 11:58:55;;;;;;;;;;;32.60;38.90;;;;;;5070211;28;19932;-82
2022/08/27 12:01:24;;;;;;;;;;;32.80;38.50;;;;;;5065610;28;19931;-81
2022/08/27 12:04:04;;;;;;;;;;;32.80;39.70;;;;;;5083939;28;19924;-83
2022/08/27 12:06:42;;;;;;;;;;;33.00;39.60;;;;;;5049500;28;20007;-82
2022/08/27 12:09:14;;;;;;;;;;;33.30;38.70;;;;;;5059691;28;19924;-83
2022/08/27 12:11:45;;;;;;;;;;;33.50;38.20;;;;;;5052462;28;20389;-82
2022/08/27 12:14:19;;;;;;;;;;;33.80;38.30;;;;;;5049958;28;19947;-81
2022/08/27 12:17:04;;;;;;;;;;;33.90;37.10;;;;;;5071990;28;19924;-83
2022/08/27 12:19:43;;;;;;;;;;;34.10;37.60;;;;;;5074763;28;20005;-80
2022/08/27 12:22:19;;;;;;;;;;;34.20;36.40;;;;;;5055764;28;19998;-80
2022/08/27 12:24:48;;;;;;;;;;;34.20;36.80;;;;;;5056857;28;19931;-82
2022/08/27 12:27:20;;;;;;;;;;;34.20;37.10;;;;;;5060735;28;19964;-83
2022/08/27 12:29:49;;;;;;;;;;;34.10;36.90;;;;;;5064133;28;19982;-81
2022/08/27 12:32:34;;;;;;;;;;;34.00;35.70;;;;;;5066542;28;19974;-83
2022/08/27 12:35:04;;;;;;;;;;;33.70;36.70;;;;;;5070811;28;20349;-83
2022/08/27 12:37:34;;;;;;;;;;;33.60;36.80;;;;;;5042423;28;19925;-81
2022/08/27 12:40:12;;;;;;;;;;;33.50;36.70;;;;;;5052675;28;19929;-81
2022/08/27 12:42:39;;;;;;;;;;;33.30;36.30;;;;;;5057221;28;19979;-80
2022/08/27 12:45:06;;;;;;;;;;;33.10;37.70;;;;;;5072426;28;20388;-81
2022/08/27 12:47:38;;;;;;;;;;;33.00;38.00;;;;;;5050585;28;19978;-83
2022/08/27 12:50:10;;;;;;;;;;;32.90;38.30;;;;;;5058423;28;19924;-80
2022/08/27 12:52:55;;;;;;;;;;;32.90;38.90;;;;;;5050610;28;19929;-80
2022/08/27 12:55:25;;;;;;;;;;;33.10;39.30;;;;;;5058726;28;20358;-81
2022/08/27 12:57:51;;;;;;;;;;;33.20;38.30;;;;;;5057383;28;19975;-81
2022/08/27 13:00:19;;;;;;;;;;;33.30;37.80;;;;;;5059073;28;20336;-82
2022/08/27 13:03:08;;;;;;;;;;;33.20;37.40;;;;;;5045096;28;20388;-82
2022/08/27 13:05:39;;;;;;;;;;;33.20;37.70;;;;;;5052847;28;20986;-79
2022/08/27 13:08:16;;;;;;;;;;;33.20;38.10;;;;;;5052069;28;19924;-82
2022/08/27 13:10:44;;;;;;;;;;;33.10;37.80;;;;;;5064620;28;19928;-81
2022/08/27 13:13:13;;;;;;;;;;;32.90;37.50;;;;;;5065483;28;19924;-81
2022/08/27 13:15:45;;;;;;;;;;;32.70;37.60;;;;;;5054023;28;19928;-80
2022/08/27 13:18:12;;;;;;;;;;;32.40;38.20;;;;;;5061956;28;20006;-81
2022/08/27 13:20:39;;;;;;;;;;;32.00;39.10;;;;;;5070475;28;20068;-80
2022/08/27 13:23:12;;;;;;;;;;;31.70;39.60;;;;;;5071992;28;19924;-80
2022/08/27 13:25:53;;;;;;;;;;;31.30;39.90;;;;;;5070960;28;19932;-81
2022/08/27 13:28:21;;;;;;;;;;;31.20;40.50;;;;;;5070040;28;19932;-81
2022/08/27 13:30:49;;;;;;;;;;;31.30;41.10;;;;;;5055567;28;19974;-81
2022/08/27 13:33:23;;;;;;;;;;;31.60;40.80;;;;;;5054379;28;19924;-81
2022/08/27 13:35:50;;;;;;;;;;;32.10;40.70;;;;;;5054193;28;19936;-80
2022/08/27 13:38:18;;;;;;;;;;;32.50;39.00;;;;;;5054196;28;20376;-81
2022/08/27 13:41:08;;;;;;;;;;;32.90;38.60;;;;;;5061015;28;19935;-81
2022/08/27 13:43:37;;;;;;;;;;;33.20;37.70;;;;;;5047025;28;20337;-81
2022/08/27 13:46:06;;;;;;;;;;;33.40;36.70;;;;;;5054051;28;19929;-80
2022/08/27 13:48:33;;;;;;;;;;;33.50;36.80;;;;;;5065241;28;19932;-80
2022/08/27 13:51:01;;;;;;;;;;;33.70;36.50;;;;;;5055635;28;19924;-81
2022/08/27 13:56:25;;;;;;;;;;;33.90;35.50;;;;;;5075272;28;19938;-82
2022/08/27 13:58:52;;;;;;;;;;;33.90;35.80;;;;;;5081995;28;20392;-84
2022/08/27 14:01:24;;;;;;;;;;;33.80;36.10;;;;;;5068896;28;19932;-81
2022/08/27 14:03:56;;;;;;;;;;;33.60;37.20;;;;;;5058682;28;19968;-81
2022/08/27 14:06:26;;;;;;;;;;;33.40;37.20;;;;;;5058470;28;19924;-82
2022/08/27 14:09:14;;;;;;;;;;;33.20;37.90;;;;;;5058501;28;20018;-81
2022/08/27 14:11:42;;;;;;;;;;;33.10;38.40;;;;;;5060764;28;19931;-83
2022/08/27 14:14:08;;;;;;;;;;;33.30;38.50;;;;;;5062224;28;19974;-83
2022/08/27 14:16:36;;;;;;;;;;;33.50;37.60;;;;;;5062006;28;19929;-81
2022/08/27 14:19:05;;;;;;;;;;;33.80;38.30;;;;;;5061160;28;19924;-83
2022/08/27 14:21:33;;;;;;;;;;;34.10;37.60;;;;;;5055968;28;19936;-81
2022/08/27 14:24:01;;;;;;;;;;;34.20;37.20;;;;;;5059751;28;19977;-79
2022/08/27 14:26:29;;;;;;;;;;;34.30;36.90;;;;;;5066566;28;19924;-83
2022/08/27 14:28:56;;;;;;;;;;;34.40;36.60;;;;;;5064754;28;19971;-83
2022/08/27 14:31:23;;;;;;;;;;;34.40;36.00;;;;;;5058179;28;19928;-83
2022/08/27 14:33:52;;;;;;;;;;;34.30;36.50;;;;;;5062952;28;20307;-84
2022/08/27 14:36:20;;;;;;;;;;;34.20;37.20;;;;;;5066736;28;20498;-84
2022/08/27 14:38:48;;;;;;;;;;;34.30;37.20;;;;;;5067683;28;20295;-81
2022/08/27 14:41:15;;;;;;;;;;;34.30;36.20;;;;;;5081564;28;20347;-81
2022/08/27 14:43:47;;;;;;;;;;;34.40;36.30;;;;;;5061728;28;20008;-83